sensor_id;sensor_type;location;lat;lon;timestamp;P1;durP1;ratioP1;P2;durP2;ratioP2
23169;SDS011;11753;43.144;24.714;2023-03-16T00:00:46;14.75;;;10.18;;
23169;SDS011;11753;43.144;24.714;2023-03-16T00:01:47;16.10;;;11.02;;
23169;SDS011;11753;43.144;24.714;2023-03-16T00:02:50;14.70;;;9.93;;
23169;SDS011;11753;43.144;24.714;2023-03-16T00:03:51;15.00;;;10.48;;
23169;SDS011;11753;43.144;24.714;2023-03-16T00:04:52;13.98;;;9.95;;
23169;SDS011;11753;43.144;24.714;2023-03-16T00:05:54;13.43;;;9.95;;
23169;SDS011;11753;43.144;24.714;2023-03-16T00:06:56;13.30;;;9.23;;
23169;SDS011;11753;43.144;24.714;2023-03-16T00:07:57;14.30;;;9.50;;
23169;SDS011;11753;43.144;24.714;2023-03-16T00:08:58;15.43;;;11.55;;
23169;SDS011;11753;43.144;24.714;2023-03-16T00:09:59;13.45;;;9.80;;
23169;SDS011;11753;43.144;24.714;2023-03-16T00:11:01;13.02;;;9.20;;
23169;SDS011;11753;43.144;24.714;2023-03-16T00:12:02;12.88;;;9.75;;
23169;SDS011;11753;43.144;24.714;2023-03-16T00:13:03;18.75;;;11.68;;
23169;SDS011;11753;43.144;24.714;2023-03-16T00:14:04;13.77;;;10.18;;
23169;SDS011;11753;43.144;24.714;2023-03-16T00:15:05;13.48;;;9.80;;
23169;SDS011;11753;43.144;24.714;2023-03-16T00:16:06;12.40;;;9.10;;
23169;SDS011;11753;43.144;24.714;2023-03-16T00:17:07;14.65;;;9.63;;
23169;SDS011;11753;43.144;24.714;2023-03-16T00:18:07;13.40;;;9.10;;
23169;SDS011;11753;43.144;24.714;2023-03-16T00:19:11;11.38;;;8.52;;
23169;SDS011;11753;43.144;24.714;2023-03-16T00:20:16;13.45;;;9.00;;
23169;SDS011;11753;43.144;24.714;2023-03-16T00:21:17;14.73;;;9.25;;
23169;SDS011;11753;43.144;24.714;2023-03-16T00:22:18;12.63;;;9.13;;
23169;SDS011;11753;43.144;24.714;2023-03-16T00:23:19;12.15;;;8.50;;
23169;SDS011;11753;43.144;24.714;2023-03-16T00:24:26;12.90;;;8.95;;
23169;SDS011;11753;43.144;24.714;2023-03-16T00:25:27;14.07;;;9.88;;
23169;SDS011;11753;43.144;24.714;2023-03-16T00:26:28;20.15;;;12.35;;
23169;SDS011;11753;43.144;24.714;2023-03-16T00:27:29;14.27;;;9.82;;
23169;SDS011;11753;43.144;24.714;2023-03-16T00:28:30;11.75;;;8.93;;
23169;SDS011;11753;43.144;24.714;2023-03-16T00:29:34;14.68;;;8.75;;
23169;SDS011;11753;43.144;24.714;2023-03-16T00:30:35;14.43;;;9.45;;
23169;SDS011;11753;43.144;24.714;2023-03-16T00:31:37;11.98;;;8.35;;
23169;SDS011;11753;43.144;24.714;2023-03-16T00:32:44;11.23;;;7.85;;
23169;SDS011;11753;43.144;24.714;2023-03-16T00:33:45;11.00;;;7.90;;
23169;SDS011;11753;43.144;24.714;2023-03-16T00:34:46;12.07;;;7.90;;
23169;SDS011;11753;43.144;24.714;2023-03-16T00:35:47;10.20;;;7.15;;
23169;SDS011;11753;43.144;24.714;2023-03-16T00:37:01;9.48;;;6.70;;
23169;SDS011;11753;43.144;24.714;2023-03-16T00:38:04;9.18;;;6.20;;
23169;SDS011;11753;43.144;24.714;2023-03-16T00:39:05;10.02;;;6.43;;
23169;SDS011;11753;43.144;24.714;2023-03-16T00:40:07;9.45;;;6.75;;
23169;SDS011;11753;43.144;24.714;2023-03-16T00:41:08;9.95;;;6.00;;
23169;SDS011;11753;43.144;24.714;2023-03-16T00:42:09;8.18;;;5.68;;
23169;SDS011;11753;43.144;24.714;2023-03-16T00:43:12;8.20;;;5.15;;
23169;SDS011;11753;43.144;24.714;2023-03-16T00:44:18;9.10;;;6.05;;
23169;SDS011;11753;43.144;24.714;2023-03-16T00:45:18;8.43;;;5.75;;
23169;SDS011;11753;43.144;24.714;2023-03-16T00:46:19;8.18;;;5.80;;
23169;SDS011;11753;43.144;24.714;2023-03-16T00:47:29;7.72;;;5.53;;
23169;SDS011;11753;43.144;24.714;2023-03-16T00:48:35;8.80;;;5.82;;
23169;SDS011;11753;43.144;24.714;2023-03-16T00:49:37;8.52;;;5.72;;
23169;SDS011;11753;43.144;24.714;2023-03-16T00:50:38;7.25;;;5.00;;
23169;SDS011;11753;43.144;24.714;2023-03-16T00:51:39;7.38;;;5.50;;
23169;SDS011;11753;43.144;24.714;2023-03-16T00:52:47;6.78;;;4.95;;
23169;SDS011;11753;43.144;24.714;2023-03-16T00:53:48;7.43;;;5.13;;
23169;SDS011;11753;43.144;24.714;2023-03-16T00:54:49;7.60;;;5.07;;
23169;SDS011;11753;43.144;24.714;2023-03-16T00:55:53;8.60;;;5.32;;
23169;SDS011;11753;43.144;24.714;2023-03-16T00:56:54;8.57;;;4.70;;
23169;SDS011;11753;43.144;24.714;2023-03-16T00:57:55;8.48;;;4.45;;
23169;SDS011;11753;43.144;24.714;2023-03-16T00:58:56;7.50;;;4.63;;
23169;SDS011;11753;43.144;24.714;2023-03-16T00:59:57;6.75;;;4.53;;
23169;SDS011;11753;43.144;24.714;2023-03-16T01:00:58;6.13;;;4.30;;
23169;SDS011;11753;43.144;24.714;2023-03-16T01:02:01;8.68;;;4.95;;
23169;SDS011;11753;43.144;24.714;2023-03-16T01:03:02;5.65;;;4.30;;
23169;SDS011;11753;43.144;24.714;2023-03-16T01:04:03;6.68;;;4.55;;
23169;SDS011;11753;43.144;24.714;2023-03-16T01:05:04;7.00;;;4.65;;
23169;SDS011;11753;43.144;24.714;2023-03-16T01:06:06;6.05;;;4.00;;
23169;SDS011;11753;43.144;24.714;2023-03-16T01:07:11;4.72;;;3.75;;
23169;SDS011;11753;43.144;24.714;2023-03-16T01:08:13;5.20;;;3.88;;
23169;SDS011;11753;43.144;24.714;2023-03-16T01:09:14;6.05;;;3.40;;
23169;SDS011;11753;43.144;24.714;2023-03-16T01:10:15;6.90;;;3.90;;
23169;SDS011;11753;43.144;24.714;2023-03-16T01:11:17;6.68;;;4.18;;
23169;SDS011;11753;43.144;24.714;2023-03-16T01:12:21;4.43;;;3.30;;
23169;SDS011;11753;43.144;24.714;2023-03-16T01:13:22;5.05;;;3.42;;
23169;SDS011;11753;43.144;24.714;2023-03-16T01:14:22;6.13;;;4.30;;
23169;SDS011;11753;43.144;24.714;2023-03-16T01:15:23;5.55;;;3.95;;
23169;SDS011;11753;43.144;24.714;2023-03-16T01:16:24;6.28;;;3.88;;
23169;SDS011;11753;43.144;24.714;2023-03-16T01:17:25;5.10;;;3.35;;
23169;SDS011;11753;43.144;24.714;2023-03-16T01:18:27;6.55;;;3.97;;
23169;SDS011;11753;43.144;24.714;2023-03-16T01:19:28;5.47;;;3.67;;
23169;SDS011;11753;43.144;24.714;2023-03-16T01:20:33;6.10;;;3.58;;
23169;SDS011;11753;43.144;24.714;2023-03-16T01:21:34;4.72;;;3.35;;
23169;SDS011;11753;43.144;24.714;2023-03-16T01:22:37;6.22;;;3.60;;
23169;SDS011;11753;43.144;24.714;2023-03-16T01:23:38;5.32;;;3.80;;
23169;SDS011;11753;43.144;24.714;2023-03-16T01:24:40;5.00;;;3.63;;
23169;SDS011;11753;43.144;24.714;2023-03-16T01:25:42;6.25;;;3.75;;
23169;SDS011;11753;43.144;24.714;2023-03-16T01:26:43;6.50;;;3.70;;
23169;SDS011;11753;43.144;24.714;2023-03-16T01:27:44;5.95;;;3.60;;
23169;SDS011;11753;43.144;24.714;2023-03-16T01:28:44;4.47;;;2.90;;
23169;SDS011;11753;43.144;24.714;2023-03-16T01:29:45;4.35;;;3.13;;
23169;SDS011;11753;43.144;24.714;2023-03-16T01:30:46;4.13;;;3.00;;
23169;SDS011;11753;43.144;24.714;2023-03-16T01:31:46;4.20;;;2.88;;
23169;SDS011;11753;43.144;24.714;2023-03-16T01:32:50;7.63;;;3.03;;
23169;SDS011;11753;43.144;24.714;2023-03-16T01:33:51;6.57;;;2.92;;
23169;SDS011;11753;43.144;24.714;2023-03-16T01:34:52;4.65;;;2.75;;
23169;SDS011;11753;43.144;24.714;2023-03-16T01:35:54;4.57;;;2.53;;
23169;SDS011;11753;43.144;24.714;2023-03-16T01:36:56;3.70;;;2.35;;
23169;SDS011;11753;43.144;24.714;2023-03-16T01:37:57;4.28;;;2.42;;
23169;SDS011;11753;43.144;24.714;2023-03-16T01:38:58;3.50;;;2.40;;
23169;SDS011;11753;43.144;24.714;2023-03-16T01:39:59;3.88;;;2.38;;
23169;SDS011;11753;43.144;24.714;2023-03-16T01:41:01;3.78;;;2.45;;
23169;SDS011;11753;43.144;24.714;2023-03-16T01:42:02;4.00;;;2.55;;
23169;SDS011;11753;43.144;24.714;2023-03-16T01:43:03;4.28;;;2.78;;
23169;SDS011;11753;43.144;24.714;2023-03-16T01:44:17;5.25;;;2.45;;
23169;SDS011;11753;43.144;24.714;2023-03-16T01:47:06;4.53;;;2.45;;
23169;SDS011;11753;43.144;24.714;2023-03-16T01:48:07;3.80;;;2.25;;
23169;SDS011;11753;43.144;24.714;2023-03-16T01:49:16;2.97;;;2.08;;
23169;SDS011;11753;43.144;24.714;2023-03-16T01:50:23;5.13;;;2.33;;
23169;SDS011;11753;43.144;24.714;2023-03-16T01:52:37;4.43;;;2.15;;
23169;SDS011;11753;43.144;24.714;2023-03-16T01:53:38;3.50;;;2.00;;
23169;SDS011;11753;43.144;24.714;2023-03-16T01:55:02;2.90;;;2.05;;
23169;SDS011;11753;43.144;24.714;2023-03-16T01:56:09;3.10;;;2.00;;
23169;SDS011;11753;43.144;24.714;2023-03-16T01:58:26;3.40;;;1.85;;
23169;SDS011;11753;43.144;24.714;2023-03-16T01:59:36;2.90;;;1.60;;
23169;SDS011;11753;43.144;24.714;2023-03-16T02:00:42;3.55;;;1.95;;
23169;SDS011;11753;43.144;24.714;2023-03-16T02:01:45;3.22;;;2.03;;
23169;SDS011;11753;43.144;24.714;2023-03-16T02:02:47;3.60;;;1.90;;
23169;SDS011;11753;43.144;24.714;2023-03-16T02:03:54;3.33;;;2.05;;
23169;SDS011;11753;43.144;24.714;2023-03-16T02:06:15;2.90;;;1.85;;
23169;SDS011;11753;43.144;24.714;2023-03-16T02:07:19;2.65;;;1.45;;
23169;SDS011;11753;43.144;24.714;2023-03-16T02:08:24;2.92;;;1.50;;
23169;SDS011;11753;43.144;24.714;2023-03-16T02:09:26;4.18;;;1.70;;
23169;SDS011;11753;43.144;24.714;2023-03-16T02:10:28;2.90;;;1.67;;
23169;SDS011;11753;43.144;24.714;2023-03-16T02:11:30;2.75;;;1.70;;
23169;SDS011;11753;43.144;24.714;2023-03-16T02:12:32;3.72;;;1.73;;
23169;SDS011;11753;43.144;24.714;2023-03-16T02:13:33;3.22;;;1.80;;
23169;SDS011;11753;43.144;24.714;2023-03-16T02:14:36;3.20;;;1.52;;
23169;SDS011;11753;43.144;24.714;2023-03-16T02:15:37;2.25;;;1.33;;
23169;SDS011;11753;43.144;24.714;2023-03-16T02:16:38;3.72;;;1.80;;
23169;SDS011;11753;43.144;24.714;2023-03-16T02:17:41;3.08;;;1.70;;
23169;SDS011;11753;43.144;24.714;2023-03-16T02:18:47;2.97;;;1.60;;
23169;SDS011;11753;43.144;24.714;2023-03-16T02:22:35;2.92;;;1.60;;
23169;SDS011;11753;43.144;24.714;2023-03-16T02:23:41;3.30;;;1.73;;
23169;SDS011;11753;43.144;24.714;2023-03-16T02:24:43;2.58;;;1.58;;
23169;SDS011;11753;43.144;24.714;2023-03-16T02:26:00;2.80;;;1.50;;
23169;SDS011;11753;43.144;24.714;2023-03-16T02:27:11;2.67;;;1.60;;
23169;SDS011;11753;43.144;24.714;2023-03-16T02:29:27;2.63;;;1.45;;
23169;SDS011;11753;43.144;24.714;2023-03-16T02:30:45;3.22;;;1.50;;
23169;SDS011;11753;43.144;24.714;2023-03-16T02:31:47;3.72;;;1.73;;
23169;SDS011;11753;43.144;24.714;2023-03-16T02:32:48;4.38;;;1.40;;
23169;SDS011;11753;43.144;24.714;2023-03-16T02:33:52;3.28;;;1.67;;
23169;SDS011;11753;43.144;24.714;2023-03-16T02:34:54;2.92;;;1.70;;
23169;SDS011;11753;43.144;24.714;2023-03-16T02:35:55;2.83;;;1.60;;
23169;SDS011;11753;43.144;24.714;2023-03-16T02:36:59;2.92;;;1.70;;
23169;SDS011;11753;43.144;24.714;2023-03-16T02:38:00;3.17;;;1.63;;
23169;SDS011;11753;43.144;24.714;2023-03-16T02:39:02;2.33;;;1.33;;
23169;SDS011;11753;43.144;24.714;2023-03-16T02:40:22;2.65;;;1.63;;
23169;SDS011;11753;43.144;24.714;2023-03-16T02:41:25;2.80;;;1.70;;
23169;SDS011;11753;43.144;24.714;2023-03-16T02:42:26;2.30;;;1.35;;
23169;SDS011;11753;43.144;24.714;2023-03-16T02:43:30;2.80;;;1.50;;
23169;SDS011;11753;43.144;24.714;2023-03-16T02:44:37;2.30;;;1.27;;
23169;SDS011;11753;43.144;24.714;2023-03-16T02:45:42;2.95;;;1.42;;
23169;SDS011;11753;43.144;24.714;2023-03-16T02:46:53;1.85;;;1.20;;
23169;SDS011;11753;43.144;24.714;2023-03-16T02:48:00;2.90;;;1.08;;
23169;SDS011;11753;43.144;24.714;2023-03-16T02:51:16;3.50;;;1.67;;
23169;SDS011;11753;43.144;24.714;2023-03-16T02:52:17;2.83;;;1.17;;
23169;SDS011;11753;43.144;24.714;2023-03-16T02:53:18;2.30;;;1.30;;
23169;SDS011;11753;43.144;24.714;2023-03-16T02:54:20;3.25;;;1.75;;
23169;SDS011;11753;43.144;24.714;2023-03-16T02:55:21;2.78;;;1.80;;
23169;SDS011;11753;43.144;24.714;2023-03-16T02:56:25;2.88;;;1.50;;
23169;SDS011;11753;43.144;24.714;2023-03-16T02:57:26;2.60;;;1.33;;
23169;SDS011;11753;43.144;24.714;2023-03-16T02:58:29;3.25;;;1.73;;
23169;SDS011;11753;43.144;24.714;2023-03-16T02:59:31;2.72;;;1.42;;
23169;SDS011;11753;43.144;24.714;2023-03-16T03:00:31;2.38;;;1.50;;
23169;SDS011;11753;43.144;24.714;2023-03-16T03:01:33;2.30;;;1.42;;
23169;SDS011;11753;43.144;24.714;2023-03-16T03:02:34;2.28;;;1.40;;
23169;SDS011;11753;43.144;24.714;2023-03-16T03:03:34;2.40;;;1.17;;
23169;SDS011;11753;43.144;24.714;2023-03-16T03:04:35;3.95;;;1.80;;
23169;SDS011;11753;43.144;24.714;2023-03-16T03:05:36;3.08;;;1.55;;
23169;SDS011;11753;43.144;24.714;2023-03-16T03:06:37;3.10;;;1.60;;
23169;SDS011;11753;43.144;24.714;2023-03-16T03:07:38;2.28;;;1.45;;
23169;SDS011;11753;43.144;24.714;2023-03-16T03:08:39;2.80;;;1.50;;
23169;SDS011;11753;43.144;24.714;2023-03-16T03:09:42;2.53;;;1.33;;
23169;SDS011;11753;43.144;24.714;2023-03-16T03:10:43;3.33;;;1.75;;
23169;SDS011;11753;43.144;24.714;2023-03-16T03:11:44;3.85;;;1.63;;
23169;SDS011;11753;43.144;24.714;2023-03-16T03:12:46;2.60;;;1.52;;
23169;SDS011;11753;43.144;24.714;2023-03-16T03:13:48;4.07;;;2.00;;
23169;SDS011;11753;43.144;24.714;2023-03-16T03:14:50;3.60;;;2.10;;
23169;SDS011;11753;43.144;24.714;2023-03-16T03:15:51;3.55;;;1.90;;
23169;SDS011;11753;43.144;24.714;2023-03-16T03:16:51;2.90;;;1.88;;
23169;SDS011;11753;43.144;24.714;2023-03-16T03:17:52;2.70;;;1.45;;
23169;SDS011;11753;43.144;24.714;2023-03-16T03:18:52;3.00;;;1.70;;
23169;SDS011;11753;43.144;24.714;2023-03-16T03:19:54;2.45;;;1.55;;
23169;SDS011;11753;43.144;24.714;2023-03-16T03:20:56;3.00;;;1.73;;
23169;SDS011;11753;43.144;24.714;2023-03-16T03:21:57;3.88;;;1.55;;
23169;SDS011;11753;43.144;24.714;2023-03-16T03:22:58;2.63;;;1.35;;
23169;SDS011;11753;43.144;24.714;2023-03-16T03:23:58;2.72;;;1.73;;
23169;SDS011;11753;43.144;24.714;2023-03-16T03:24:59;2.13;;;1.15;;
23169;SDS011;11753;43.144;24.714;2023-03-16T03:26:02;3.22;;;1.60;;
23169;SDS011;11753;43.144;24.714;2023-03-16T03:27:03;2.95;;;1.58;;
23169;SDS011;11753;43.144;24.714;2023-03-16T03:28:05;2.65;;;1.52;;
23169;SDS011;11753;43.144;24.714;2023-03-16T03:29:05;2.97;;;1.60;;
23169;SDS011;11753;43.144;24.714;2023-03-16T03:30:07;2.97;;;1.40;;
23169;SDS011;11753;43.144;24.714;2023-03-16T03:31:13;1.85;;;1.20;;
23169;SDS011;11753;43.144;24.714;2023-03-16T03:32:15;2.38;;;1.48;;
23169;SDS011;11753;43.144;24.714;2023-03-16T03:33:16;4.10;;;1.60;;
23169;SDS011;11753;43.144;24.714;2023-03-16T03:34:18;2.53;;;1.55;;
23169;SDS011;11753;43.144;24.714;2023-03-16T03:35:18;2.58;;;1.60;;
23169;SDS011;11753;43.144;24.714;2023-03-16T03:36:20;5.13;;;2.00;;
23169;SDS011;11753;43.144;24.714;2023-03-16T03:37:21;2.92;;;1.52;;
23169;SDS011;11753;43.144;24.714;2023-03-16T03:38:22;3.50;;;1.95;;
23169;SDS011;11753;43.144;24.714;2023-03-16T03:39:24;2.72;;;1.50;;
23169;SDS011;11753;43.144;24.714;2023-03-16T03:40:25;2.72;;;1.83;;
23169;SDS011;11753;43.144;24.714;2023-03-16T03:41:28;2.90;;;1.65;;
23169;SDS011;11753;43.144;24.714;2023-03-16T03:42:29;3.15;;;1.58;;
23169;SDS011;11753;43.144;24.714;2023-03-16T03:43:30;2.80;;;1.63;;
23169;SDS011;11753;43.144;24.714;2023-03-16T03:44:32;2.47;;;1.45;;
23169;SDS011;11753;43.144;24.714;2023-03-16T03:45:37;2.55;;;1.33;;
23169;SDS011;11753;43.144;24.714;2023-03-16T03:46:38;3.13;;;1.40;;
23169;SDS011;11753;43.144;24.714;2023-03-16T03:47:39;2.30;;;1.40;;
23169;SDS011;11753;43.144;24.714;2023-03-16T03:48:41;2.75;;;1.42;;
23169;SDS011;11753;43.144;24.714;2023-03-16T03:49:42;2.95;;;1.38;;
23169;SDS011;11753;43.144;24.714;2023-03-16T03:50:43;2.28;;;1.20;;
23169;SDS011;11753;43.144;24.714;2023-03-16T03:51:44;2.20;;;1.40;;
23169;SDS011;11753;43.144;24.714;2023-03-16T03:52:46;2.58;;;1.52;;
23169;SDS011;11753;43.144;24.714;2023-03-16T03:53:48;2.88;;;1.60;;
23169;SDS011;11753;43.144;24.714;2023-03-16T03:54:49;3.42;;;2.10;;
23169;SDS011;11753;43.144;24.714;2023-03-16T03:55:50;4.63;;;1.90;;
23169;SDS011;11753;43.144;24.714;2023-03-16T03:56:51;6.22;;;1.90;;
23169;SDS011;11753;43.144;24.714;2023-03-16T03:57:52;3.08;;;1.90;;
23169;SDS011;11753;43.144;24.714;2023-03-16T03:58:53;3.67;;;1.85;;
23169;SDS011;11753;43.144;24.714;2023-03-16T03:59:54;2.42;;;1.60;;
23169;SDS011;11753;43.144;24.714;2023-03-16T04:00:55;3.50;;;1.50;;
23169;SDS011;11753;43.144;24.714;2023-03-16T04:01:55;2.83;;;1.77;;
23169;SDS011;11753;43.144;24.714;2023-03-16T04:02:56;2.45;;;1.48;;
23169;SDS011;11753;43.144;24.714;2023-03-16T04:03:57;2.65;;;1.50;;
23169;SDS011;11753;43.144;24.714;2023-03-16T04:04:58;2.63;;;1.50;;
23169;SDS011;11753;43.144;24.714;2023-03-16T04:05:59;2.40;;;1.45;;
23169;SDS011;11753;43.144;24.714;2023-03-16T04:07:00;2.90;;;1.60;;
23169;SDS011;11753;43.144;24.714;2023-03-16T04:08:01;2.50;;;1.50;;
23169;SDS011;11753;43.144;24.714;2023-03-16T04:09:02;3.55;;;1.50;;
23169;SDS011;11753;43.144;24.714;2023-03-16T04:10:03;3.10;;;1.85;;
23169;SDS011;11753;43.144;24.714;2023-03-16T04:11:05;3.00;;;1.83;;
23169;SDS011;11753;43.144;24.714;2023-03-16T04:12:06;2.78;;;1.60;;
23169;SDS011;11753;43.144;24.714;2023-03-16T04:13:07;2.80;;;1.50;;
23169;SDS011;11753;43.144;24.714;2023-03-16T04:14:08;3.10;;;1.60;;
23169;SDS011;11753;43.144;24.714;2023-03-16T04:15:09;2.97;;;1.45;;
23169;SDS011;11753;43.144;24.714;2023-03-16T04:16:11;1.98;;;1.20;;
23169;SDS011;11753;43.144;24.714;2023-03-16T04:17:15;2.00;;;1.30;;
23169;SDS011;11753;43.144;24.714;2023-03-16T04:18:16;2.15;;;1.30;;
23169;SDS011;11753;43.144;24.714;2023-03-16T04:19:20;2.33;;;1.45;;
23169;SDS011;11753;43.144;24.714;2023-03-16T04:20:23;2.63;;;1.52;;
23169;SDS011;11753;43.144;24.714;2023-03-16T04:21:24;2.13;;;1.27;;
23169;SDS011;11753;43.144;24.714;2023-03-16T04:22:24;2.53;;;1.65;;
23169;SDS011;11753;43.144;24.714;2023-03-16T04:23:25;2.50;;;1.50;;
23169;SDS011;11753;43.144;24.714;2023-03-16T04:24:26;2.40;;;1.60;;
23169;SDS011;11753;43.144;24.714;2023-03-16T04:25:27;2.95;;;1.80;;
23169;SDS011;11753;43.144;24.714;2023-03-16T04:26:30;4.32;;;1.90;;
23169;SDS011;11753;43.144;24.714;2023-03-16T04:27:32;2.80;;;1.60;;
23169;SDS011;11753;43.144;24.714;2023-03-16T04:28:35;2.40;;;1.48;;
23169;SDS011;11753;43.144;24.714;2023-03-16T04:29:37;2.45;;;1.55;;
23169;SDS011;11753;43.144;24.714;2023-03-16T04:30:38;2.95;;;1.90;;
23169;SDS011;11753;43.144;24.714;2023-03-16T04:31:39;3.35;;;1.80;;
23169;SDS011;11753;43.144;24.714;2023-03-16T04:32:41;2.63;;;1.70;;
23169;SDS011;11753;43.144;24.714;2023-03-16T04:33:42;3.10;;;1.60;;
23169;SDS011;11753;43.144;24.714;2023-03-16T04:34:43;3.05;;;1.55;;
23169;SDS011;11753;43.144;24.714;2023-03-16T04:35:44;3.00;;;1.80;;
23169;SDS011;11753;43.144;24.714;2023-03-16T04:36:45;3.10;;;1.73;;
23169;SDS011;11753;43.144;24.714;2023-03-16T04:37:46;2.30;;;1.50;;
23169;SDS011;11753;43.144;24.714;2023-03-16T04:38:47;2.47;;;1.40;;
23169;SDS011;11753;43.144;24.714;2023-03-16T04:39:48;2.80;;;1.58;;
23169;SDS011;11753;43.144;24.714;2023-03-16T04:40:49;3.10;;;1.60;;
23169;SDS011;11753;43.144;24.714;2023-03-16T04:41:50;3.17;;;1.63;;
23169;SDS011;11753;43.144;24.714;2023-03-16T04:42:51;3.30;;;1.73;;
23169;SDS011;11753;43.144;24.714;2023-03-16T04:43:51;3.35;;;1.67;;
23169;SDS011;11753;43.144;24.714;2023-03-16T04:44:53;2.72;;;1.77;;
23169;SDS011;11753;43.144;24.714;2023-03-16T04:45:55;2.58;;;1.60;;
23169;SDS011;11753;43.144;24.714;2023-03-16T04:46:55;5.03;;;3.42;;
23169;SDS011;11753;43.144;24.714;2023-03-16T04:47:56;7.40;;;5.05;;
23169;SDS011;11753;43.144;24.714;2023-03-16T04:48:57;8.05;;;5.35;;
23169;SDS011;11753;43.144;24.714;2023-03-16T04:49:59;6.63;;;4.63;;
23169;SDS011;11753;43.144;24.714;2023-03-16T04:51:02;4.10;;;2.13;;
23169;SDS011;11753;43.144;24.714;2023-03-16T04:52:05;2.13;;;1.27;;
23169;SDS011;11753;43.144;24.714;2023-03-16T04:53:06;2.45;;;1.58;;
23169;SDS011;11753;43.144;24.714;2023-03-16T04:54:07;2.35;;;1.50;;
23169;SDS011;11753;43.144;24.714;2023-03-16T04:55:09;3.20;;;1.80;;
23169;SDS011;11753;43.144;24.714;2023-03-16T04:56:10;3.63;;;2.38;;
23169;SDS011;11753;43.144;24.714;2023-03-16T04:57:18;10.98;;;8.35;;
23169;SDS011;11753;43.144;24.714;2023-03-16T04:58:19;2.60;;;1.52;;
23169;SDS011;11753;43.144;24.714;2023-03-16T04:59:20;4.55;;;3.10;;
23169;SDS011;11753;43.144;24.714;2023-03-16T05:00:20;6.53;;;4.72;;
23169;SDS011;11753;43.144;24.714;2023-03-16T05:01:22;5.55;;;4.03;;
23169;SDS011;11753;43.144;24.714;2023-03-16T05:02:23;9.55;;;6.57;;
23169;SDS011;11753;43.144;24.714;2023-03-16T05:03:23;3.25;;;2.28;;
23169;SDS011;11753;43.144;24.714;2023-03-16T05:04:24;7.80;;;4.82;;
23169;SDS011;11753;43.144;24.714;2023-03-16T05:05:25;4.15;;;2.25;;
23169;SDS011;11753;43.144;24.714;2023-03-16T05:06:26;18.55;;;11.95;;
23169;SDS011;11753;43.144;24.714;2023-03-16T05:07:29;7.32;;;4.30;;
23169;SDS011;11753;43.144;24.714;2023-03-16T05:08:31;11.32;;;7.32;;
23169;SDS011;11753;43.144;24.714;2023-03-16T05:09:32;42.78;;;29.92;;
23169;SDS011;11753;43.144;24.714;2023-03-16T05:10:33;18.30;;;12.27;;
23169;SDS011;11753;43.144;24.714;2023-03-16T05:11:34;8.07;;;5.13;;
23169;SDS011;11753;43.144;24.714;2023-03-16T05:12:35;42.80;;;27.92;;
23169;SDS011;11753;43.144;24.714;2023-03-16T05:13:36;24.10;;;16.13;;
23169;SDS011;11753;43.144;24.714;2023-03-16T05:14:39;15.05;;;9.98;;
23169;SDS011;11753;43.144;24.714;2023-03-16T05:15:40;16.45;;;10.55;;
23169;SDS011;11753;43.144;24.714;2023-03-16T05:16:41;9.15;;;6.28;;
23169;SDS011;11753;43.144;24.714;2023-03-16T05:17:42;6.82;;;4.22;;
23169;SDS011;11753;43.144;24.714;2023-03-16T05:18:43;3.80;;;2.22;;
23169;SDS011;11753;43.144;24.714;2023-03-16T05:19:44;3.20;;;2.00;;
23169;SDS011;11753;43.144;24.714;2023-03-16T05:20:44;2.92;;;1.50;;
23169;SDS011;11753;43.144;24.714;2023-03-16T05:21:48;2.92;;;1.92;;
23169;SDS011;11753;43.144;24.714;2023-03-16T05:22:48;3.58;;;1.42;;
23169;SDS011;11753;43.144;24.714;2023-03-16T05:23:49;2.60;;;1.65;;
23169;SDS011;11753;43.144;24.714;2023-03-16T05:24:51;5.20;;;3.15;;
23169;SDS011;11753;43.144;24.714;2023-03-16T05:25:53;2.78;;;1.98;;
23169;SDS011;11753;43.144;24.714;2023-03-16T05:26:54;5.05;;;3.75;;
23169;SDS011;11753;43.144;24.714;2023-03-16T05:27:55;3.90;;;3.20;;
23169;SDS011;11753;43.144;24.714;2023-03-16T05:28:57;4.60;;;3.58;;
23169;SDS011;11753;43.144;24.714;2023-03-16T05:29:58;2.80;;;1.73;;
23169;SDS011;11753;43.144;24.714;2023-03-16T05:31:00;2.90;;;1.67;;
23169;SDS011;11753;43.144;24.714;2023-03-16T05:32:03;3.40;;;2.47;;
23169;SDS011;11753;43.144;24.714;2023-03-16T05:33:06;2.38;;;1.45;;
23169;SDS011;11753;43.144;24.714;2023-03-16T05:34:07;3.63;;;1.80;;
23169;SDS011;11753;43.144;24.714;2023-03-16T05:35:09;6.22;;;2.90;;
23169;SDS011;11753;43.144;24.714;2023-03-16T05:36:13;2.38;;;1.48;;
23169;SDS011;11753;43.144;24.714;2023-03-16T05:37:14;2.28;;;1.25;;
23169;SDS011;11753;43.144;24.714;2023-03-16T05:38:15;2.78;;;1.52;;
23169;SDS011;11753;43.144;24.714;2023-03-16T05:39:16;2.35;;;1.30;;
23169;SDS011;11753;43.144;24.714;2023-03-16T05:40:17;1.85;;;1.17;;
23169;SDS011;11753;43.144;24.714;2023-03-16T05:41:18;3.15;;;2.42;;
23169;SDS011;11753;43.144;24.714;2023-03-16T05:42:20;2.90;;;1.92;;
23169;SDS011;11753;43.144;24.714;2023-03-16T05:43:22;3.58;;;1.70;;
23169;SDS011;11753;43.144;24.714;2023-03-16T05:44:23;2.13;;;1.13;;
23169;SDS011;11753;43.144;24.714;2023-03-16T05:45:24;1.52;;;1.15;;
23169;SDS011;11753;43.144;24.714;2023-03-16T05:46:25;2.70;;;1.63;;
23169;SDS011;11753;43.144;24.714;2023-03-16T05:47:26;2.28;;;1.30;;
23169;SDS011;11753;43.144;24.714;2023-03-16T05:48:27;2.45;;;1.50;;
23169;SDS011;11753;43.144;24.714;2023-03-16T05:49:29;2.08;;;1.27;;
23169;SDS011;11753;43.144;24.714;2023-03-16T05:50:30;2.78;;;1.10;;
23169;SDS011;11753;43.144;24.714;2023-03-16T05:51:31;2.20;;;1.30;;
23169;SDS011;11753;43.144;24.714;2023-03-16T05:52:32;2.10;;;1.30;;
23169;SDS011;11753;43.144;24.714;2023-03-16T05:53:33;2.72;;;1.27;;
23169;SDS011;11753;43.144;24.714;2023-03-16T05:54:34;1.65;;;1.13;;
23169;SDS011;11753;43.144;24.714;2023-03-16T05:55:35;3.55;;;1.20;;
23169;SDS011;11753;43.144;24.714;2023-03-16T05:56:36;4.32;;;1.45;;
23169;SDS011;11753;43.144;24.714;2023-03-16T05:57:37;2.80;;;1.70;;
23169;SDS011;11753;43.144;24.714;2023-03-16T05:58:38;2.83;;;1.70;;
23169;SDS011;11753;43.144;24.714;2023-03-16T05:59:40;5.45;;;1.60;;
23169;SDS011;11753;43.144;24.714;2023-03-16T06:00:41;2.33;;;1.50;;
23169;SDS011;11753;43.144;24.714;2023-03-16T06:01:42;1.52;;;1.00;;
23169;SDS011;11753;43.144;24.714;2023-03-16T06:02:43;2.97;;;1.15;;
23169;SDS011;11753;43.144;24.714;2023-03-16T06:03:49;2.90;;;1.40;;
23169;SDS011;11753;43.144;24.714;2023-03-16T06:04:51;3.53;;;1.50;;
23169;SDS011;11753;43.144;24.714;2023-03-16T06:05:52;2.22;;;1.05;;
23169;SDS011;11753;43.144;24.714;2023-03-16T06:06:53;2.22;;;1.05;;
23169;SDS011;11753;43.144;24.714;2023-03-16T06:07:54;2.13;;;1.20;;
23169;SDS011;11753;43.144;24.714;2023-03-16T06:08:55;3.78;;;1.40;;
23169;SDS011;11753;43.144;24.714;2023-03-16T06:09:56;2.00;;;1.20;;
23169;SDS011;11753;43.144;24.714;2023-03-16T06:10:57;4.63;;;1.55;;
23169;SDS011;11753;43.144;24.714;2023-03-16T06:11:58;4.93;;;2.78;;
23169;SDS011;11753;43.144;24.714;2023-03-16T06:12:58;4.28;;;2.03;;
23169;SDS011;11753;43.144;24.714;2023-03-16T06:14:00;3.20;;;1.63;;
23169;SDS011;11753;43.144;24.714;2023-03-16T06:15:01;32.58;;;17.98;;
23169;SDS011;11753;43.144;24.714;2023-03-16T06:16:03;7.78;;;5.00;;
23169;SDS011;11753;43.144;24.714;2023-03-16T06:17:05;3.80;;;1.85;;
23169;SDS011;11753;43.144;24.714;2023-03-16T06:18:06;2.83;;;1.73;;
23169;SDS011;11753;43.144;24.714;2023-03-16T06:19:07;2.63;;;1.38;;
23169;SDS011;11753;43.144;24.714;2023-03-16T06:20:09;4.82;;;2.85;;